Site contains unofficial IBTrACS data. Visit the IBTrACS Website to access archived data.

1921 NOT_NAMED (1921199N14128)


IBTrACS version v04r00. Visit IBTrACS website for data access.
Please direct all questions to the IBTrACS Q and A forum

Storm track - Intensity - Wind Radii - Intensity Data - Source Data - All data

Summary Information

Storm ID 1921199N14128
Start Jul 17 22Z
End Jul 21 22Z
ATCF IDs
Track status Best track data.

Storm track plot

Map of storm track

Intensity plots

No Intensity information for this storm


Radial wind information

No radial wind information for this storm


Position and Intensity Table

BASIN ISO_TIME_________ NATURE LAT LON
degrees north degrees east
WP 1921-07-17 22:00:00 NR 13.50 127.70
WP 1921-07-18 00:00:00 NR 13.75 127.62
WP 03:00:00 NR 14.12 127.50
WP 06:00:00 NR 14.50 127.37
WP 09:00:00 NR 14.87 127.24
WP 10:00:00 NR 15.00 127.20
WP 12:00:00 NR 15.26 127.11
WP 15:00:00 NR 15.64 126.98
WP 18:00:00 NR 16.02 126.85
WP 21:00:00 NR 16.38 126.73
WP 22:00:00 NR 16.50 126.70
WP 1921-07-19 00:00:00 NR 16.73 126.64
WP 03:00:00 NR 17.05 126.57
WP 06:00:00 NR 17.37 126.50
WP 09:00:00 NR 17.69 126.43
WP 10:00:00 NR 17.80 126.40
WP 12:00:00 NR 18.04 126.33
WP 15:00:00 NR 18.40 126.20
WP 18:00:00 NR 18.76 126.07
WP 21:00:00 NR 19.10 125.94
WP 22:00:00 NR 19.20 125.90
WP 1921-07-20 00:00:00 NR 19.39 125.82
WP 03:00:00 NR 19.65 125.71
WP 06:00:00 NR 19.89 125.61
WP 09:00:00 NR 20.12 125.53
WP 10:00:00 NR 20.20 125.50
WP 12:00:00 NR 20.38 125.45
WP 15:00:00 NR 20.64 125.39
WP 18:00:00 NR 20.90 125.35
WP 21:00:00 NR 21.13 125.31
WP 22:00:00 NR 21.20 125.30
WP 1921-07-21 00:00:00 NR 21.32 125.28
WP 03:00:00 NR 21.47 125.25
WP 06:00:00 NR 21.61 125.23
WP 09:00:00 NR 21.75 125.21
WP 10:00:00 NR 21.80 125.20
WP 12:00:00 NR 21.91 125.19
WP 15:00:00 NR 22.10 125.16
WP 18:00:00 NR 22.31 125.14
WP 21:00:00 NR 22.53 125.11
WP 22:00:00 NR 22.60 125.10

Source Information

Agency Information
USA
TOKYO
CMA
HKO
NEWDELHI
REUNION
BOM
NADI
WELLINGTON
DS824
TD9636 cons_worldwide_trop_cyclone_18710101-19891231-003:Line=6379
TD9635
NEUMANN
MLC

All available IBTrACS Data

SEASON BASIN SUBBASIN ISO_TIME_________ NATURE LAT LON DIST2LAND LANDFALL IFLAG USA SSHS TD9636 LAT TD9636 LON TD9636 STAGE STORM SPEED STORM DIR
Year degrees north degrees east km km 1 degrees north degrees east kts degrees
1921 WP MM 1921-07-17 22:00:00 NR 13.50 127.70 279 279 __________O___ -1 13.50 127.70 4 8 343
1921 WP MM 1921-07-18 00:00:00 NR 13.75 127.62 282 289 __________P___ -1 13.75 127.62 4 8 342
1921 WP MM 03:00:00 NR 14.12 127.50 303 303 __________P___ -1 14.12 127.50 4 8 342
1921 WP MM 06:00:00 NR 14.50 127.37 326 321 __________P___ -1 14.50 127.37 4 8 342
1921 WP MM 09:00:00 NR 14.87 127.24 321 321 __________P___ -1 14.87 127.24 4 8 342
1921 WP MM 10:00:00 NR 15.00 127.20 325 320 __________O___ -1 15.00 127.20 4 8 342
1921 WP MM 12:00:00 NR 15.26 127.11 330 326 __________P___ -1 15.26 127.11 4 8 342
1921 WP MM 15:00:00 NR 15.64 126.98 338 335 __________P___ -1 15.64 126.98 4 8 342
1921 WP MM 18:00:00 NR 16.02 126.85 357 348 __________P___ -1 16.02 126.85 4 8 343
1921 WP MM 21:00:00 NR 16.38 126.73 372 372 __________P___ -1 16.38 126.73 4 8 343
1921 WP MM 22:00:00 NR 16.50 126.70 380 380 __________O___ -1 16.50 126.70 4 7 346
1921 WP MM 1921-07-19 00:00:00 NR 16.73 126.64 390 390 __________P___ -1 16.73 126.64 4 7 347
1921 WP MM 03:00:00 NR 17.05 126.57 425 425 __________P___ -1 17.05 126.57 4 7 349
1921 WP MM 06:00:00 NR 17.37 126.50 427 419 __________P___ -1 17.37 126.50 4 7 348
1921 WP MM 09:00:00 NR 17.69 126.43 421 421 __________P___ -1 17.69 126.43 4 7 348
1921 WP MM 10:00:00 NR 17.80 126.40 423 418 __________O___ -1 17.80 126.40 4 7 345
1921 WP MM 12:00:00 NR 18.04 126.33 418 411 __________P___ -1 18.04 126.33 4 8 343
1921 WP MM 15:00:00 NR 18.40 126.20 411 401 __________P___ -1 18.40 126.20 4 8 341
1921 WP MM 18:00:00 NR 18.76 126.07 402 387 __________P___ -1 18.76 126.07 4 7 340
1921 WP MM 21:00:00 NR 19.10 125.94 387 387 __________P___ -1 19.10 125.94 4 7 340
1921 WP MM 22:00:00 NR 19.20 125.90 389 381 __________O___ -1 19.20 125.90 4 6 339
1921 WP MM 1921-07-20 00:00:00 NR 19.39 125.82 384 381 __________P___ -1 19.39 125.82 4 6 338
1921 WP MM 03:00:00 NR 19.65 125.71 381 380 __________P___ -1 19.65 125.71 4 5 338
1921 WP MM 06:00:00 NR 19.89 125.61 385 385 __________P___ -1 19.89 125.61 4 5 339
1921 WP MM 09:00:00 NR 20.12 125.53 386 386 __________P___ -1 20.12 125.53 4 5 341
1921 WP MM 10:00:00 NR 20.20 125.50 391 391 __________O___ -1 20.20 125.50 4 5 344
1921 WP MM 12:00:00 NR 20.38 125.45 403 394 __________P___ -1 20.38 125.45 4 5 348
1921 WP MM 15:00:00 NR 20.64 125.39 407 414 __________P___ -1 20.64 125.39 4 5 350
1921 WP MM 18:00:00 NR 20.90 125.35 420 420 __________P___ -1 20.90 125.35 4 5 351
1921 WP MM 21:00:00 NR 21.13 125.31 435 435 __________P___ -1 21.13 125.31 4 5 353
1921 WP MM 22:00:00 NR 21.20 125.30 443 443 __________O___ -1 21.20 125.30 4 4 351
1921 WP MM 1921-07-21 00:00:00 NR 21.32 125.28 448 439 __________P___ -1 21.32 125.28 4 3 352
1921 WP MM 03:00:00 NR 21.47 125.25 439 425 __________P___ -1 21.47 125.25 4 3 353
1921 WP MM 06:00:00 NR 21.61 125.23 425 420 __________P___ -1 21.61 125.23 4 3 352
1921 WP MM 09:00:00 NR 21.75 125.21 420 416 __________P___ -1 21.75 125.21 4 3 0
1921 WP MM 10:00:00 NR 21.80 125.20 416 412 __________O___ -1 21.80 125.20 4 3 0
1921 WP MM 12:00:00 NR 21.91 125.19 412 405 __________P___ -1 21.91 125.19 4 4 355
1921 WP MM 15:00:00 NR 22.10 125.16 405 389 __________P___ -1 22.10 125.16 4 4 353
1921 WP MM 18:00:00 NR 22.31 125.14 389 384 __________P___ -1 22.31 125.14 4 4 354
1921 WP MM 21:00:00 NR 22.53 125.11 384 383 __________P___ -1 22.53 125.11 4 4 352
1921 WP MM 22:00:00 NR 22.60 125.10 383 __________O___ -1 22.60 125.10 7 4 0